sensor_id;sensor_type;location;lat;lon;timestamp;pressure;altitude;pressure_sealevel;temperature;humidity
68758;BME280;55747;51.998;4.466;2023-02-04T00:06:58;56705.28;;;-144.48;100.00
68758;BME280;55747;51.998;4.466;2023-02-04T00:09:53;56697.00;;;-144.48;100.00
68758;BME280;55747;51.998;4.466;2023-02-04T00:12:32;56707.34;;;-144.48;100.00
68758;BME280;55747;51.998;4.466;2023-02-04T00:22:17;56697.00;;;-144.48;100.00
68758;BME280;55747;51.998;4.466;2023-02-04T00:25:50;56678.41;;;-144.48;100.00
68758;BME280;55747;51.998;4.466;2023-02-04T00:28:15;56715.59;;;-144.48;100.00
68758;BME280;55747;51.998;4.466;2023-02-04T00:30:41;56680.47;;;-144.48;100.00
68758;BME280;55747;51.998;4.466;2023-02-04T00:33:41;56682.53;;;-144.48;100.00
68758;BME280;55747;51.998;4.466;2023-02-04T00:40:22;56690.81;;;-144.48;100.00
68758;BME280;55747;51.998;4.466;2023-02-04T00:43:22;56703.19;;;-144.48;100.00
68758;BME280;55747;51.998;4.466;2023-02-04T00:46:20;56715.59;;;-144.48;100.00
68758;BME280;55747;51.998;4.466;2023-02-04T00:49:01;56707.34;;;-144.48;100.00
68758;BME280;55747;51.998;4.466;2023-02-04T00:51:32;56705.28;;;-144.48;100.00
68758;BME280;55747;51.998;4.466;2023-02-04T00:54:37;56699.06;;;-144.48;100.00
68758;BME280;55747;51.998;4.466;2023-02-04T00:57:36;56682.53;;;-144.48;100.00
68758;BME280;55747;51.998;4.466;2023-02-04T01:00:17;56670.13;;;-144.48;100.00
68758;BME280;55747;51.998;4.466;2023-02-04T01:02:43;56721.81;;;-144.48;100.00
68758;BME280;55747;51.998;4.466;2023-02-04T01:05:10;56647.38;;;-144.48;100.00
68758;BME280;55747;51.998;4.466;2023-02-04T01:07:56;56721.81;;;-144.48;100.00
68758;BME280;55747;51.998;4.466;2023-02-04T01:10:47;56676.31;;;-144.48;100.00
68758;BME280;55747;51.998;4.466;2023-02-04T01:13:35;56730.09;;;-144.48;100.00
68758;BME280;55747;51.998;4.466;2023-02-04T01:16:21;56690.81;;;-144.48;100.00
68758;BME280;55747;51.998;4.466;2023-02-04T01:19:02;56674.25;;;-144.48;100.00
68758;BME280;55747;51.998;4.466;2023-02-04T01:21:33;56723.88;;;-144.48;100.00
68758;BME280;55747;51.998;4.466;2023-02-04T01:27:40;56686.66;;;-144.48;100.00
68758;BME280;55747;51.998;4.466;2023-02-04T01:30:09;56682.53;;;-144.48;100.00
68758;BME280;55747;51.998;4.466;2023-02-04T01:32:38;56688.72;;;-144.48;100.00
68758;BME280;55747;51.998;4.466;2023-02-04T01:35:19;56701.13;;;-144.48;100.00
68758;BME280;55747;51.998;4.466;2023-02-04T01:38:02;56701.13;;;-144.48;100.00
68758;BME280;55747;51.998;4.466;2023-02-04T01:43:48;56680.47;;;-144.48;100.00
68758;BME280;55747;51.998;4.466;2023-02-04T01:46:40;56684.59;;;-144.48;100.00
68758;BME280;55747;51.998;4.466;2023-02-04T01:49:14;56694.94;;;-144.48;100.00
68758;BME280;55747;51.998;4.466;2023-02-04T01:51:40;56699.06;;;-144.48;100.00
68758;BME280;55747;51.998;4.466;2023-02-04T01:54:13;56678.41;;;-144.48;100.00
68758;BME280;55747;51.998;4.466;2023-02-04T01:56:44;56680.47;;;-144.48;100.00
68758;BME280;55747;51.998;4.466;2023-02-04T01:59:19;56697.00;;;-144.48;100.00
68758;BME280;55747;51.998;4.466;2023-02-04T02:01:52;56730.09;;;-144.48;100.00
68758;BME280;55747;51.998;4.466;2023-02-04T02:07:12;56690.81;;;-144.48;100.00
68758;BME280;55747;51.998;4.466;2023-02-04T02:09:42;56723.88;;;-144.48;100.00
68758;BME280;55747;51.998;4.466;2023-02-04T02:12:18;56674.25;;;-144.48;100.00
68758;BME280;55747;51.998;4.466;2023-02-04T02:18:17;56657.72;;;-144.48;100.00
68758;BME280;55747;51.998;4.466;2023-02-04T02:20:46;56676.31;;;-144.48;100.00
68758;BME280;55747;51.998;4.466;2023-02-04T02:23:20;56709.41;;;-144.48;100.00
68758;BME280;55747;51.998;4.466;2023-02-04T02:25:53;56723.88;;;-144.48;100.00
68758;BME280;55747;51.998;4.466;2023-02-04T02:28:20;56713.53;;;-144.48;100.00
68758;BME280;55747;51.998;4.466;2023-02-04T02:30:50;56690.81;;;-144.48;100.00
68758;BME280;55747;51.998;4.466;2023-02-04T02:33:29;56688.72;;;-144.48;100.00
68758;BME280;55747;51.998;4.466;2023-02-04T02:36:20;56684.59;;;-144.48;100.00
68758;BME280;55747;51.998;4.466;2023-02-04T02:39:13;56694.94;;;-144.48;100.00
68758;BME280;55747;51.998;4.466;2023-02-04T02:41:58;56682.53;;;-144.48;100.00
68758;BME280;55747;51.998;4.466;2023-02-04T02:44:43;56676.31;;;-144.48;100.00
68758;BME280;55747;51.998;4.466;2023-02-04T02:47:32;56715.59;;;-144.48;100.00
68758;BME280;55747;51.998;4.466;2023-02-04T02:53:15;56705.28;;;-144.48;100.00
68758;BME280;55747;51.998;4.466;2023-02-04T02:55:54;56690.81;;;-144.48;100.00
68758;BME280;55747;51.998;4.466;2023-02-04T02:58:41;56707.34;;;-144.48;100.00
68758;BME280;55747;51.998;4.466;2023-02-04T03:01:09;56707.34;;;-144.48;100.00
68758;BME280;55747;51.998;4.466;2023-02-04T03:03:48;56723.88;;;-144.48;100.00
68758;BME280;55747;51.998;4.466;2023-02-04T03:06:19;56707.34;;;-144.48;100.00
68758;BME280;55747;51.998;4.466;2023-02-04T03:08:51;56680.47;;;-144.48;100.00
68758;BME280;55747;51.998;4.466;2023-02-04T03:14:05;56699.06;;;-144.48;100.00
68758;BME280;55747;51.998;4.466;2023-02-04T03:16:36;56701.13;;;-144.48;100.00
68758;BME280;55747;51.998;4.466;2023-02-04T03:19:04;56680.47;;;-144.48;100.00
68758;BME280;55747;51.998;4.466;2023-02-04T03:21:43;56699.06;;;-144.48;100.00
68758;BME280;55747;51.998;4.466;2023-02-04T03:24:09;56701.13;;;-144.48;100.00
68758;BME280;55747;51.998;4.466;2023-02-04T03:26:47;56707.34;;;-144.48;100.00
68758;BME280;55747;51.998;4.466;2023-02-04T03:29:18;56709.41;;;-144.48;100.00
68758;BME280;55747;51.998;4.466;2023-02-04T03:31:49;56707.34;;;-144.48;100.00
68758;BME280;55747;51.998;4.466;2023-02-04T03:34:24;56717.69;;;-144.48;100.00
68758;BME280;55747;51.998;4.466;2023-02-04T03:36:55;56709.41;;;-144.48;100.00
68758;BME280;55747;51.998;4.466;2023-02-04T03:39:29;56707.34;;;-144.48;100.00
68758;BME280;55747;51.998;4.466;2023-02-04T03:41:59;56728.00;;;-144.48;100.00
68758;BME280;55747;51.998;4.466;2023-02-04T03:44:48;56709.41;;;-144.48;100.00
68758;BME280;55747;51.998;4.466;2023-02-04T03:53:51;56699.06;;;-144.48;100.00
68758;BME280;55747;51.998;4.466;2023-02-04T03:56:37;56715.59;;;-144.48;100.00
68758;BME280;55747;51.998;4.466;2023-02-04T03:59:39;56723.88;;;-144.48;100.00
68758;BME280;55747;51.998;4.466;2023-02-04T04:05:25;56709.41;;;-144.48;100.00
68758;BME280;55747;51.998;4.466;2023-02-04T04:07:57;56690.81;;;-144.48;100.00
68758;BME280;55747;51.998;4.466;2023-02-04T04:10:26;56713.53;;;-144.48;100.00
68758;BME280;55747;51.998;4.466;2023-02-04T04:12:53;56728.00;;;-144.48;100.00
68758;BME280;55747;51.998;4.466;2023-02-04T04:15:42;56697.00;;;-144.48;100.00
68758;BME280;55747;51.998;4.466;2023-02-04T04:18:10;56668.06;;;-144.48;100.00
68758;BME280;55747;51.998;4.466;2023-02-04T04:21:01;56773.50;;;-144.48;100.00
68758;BME280;55747;51.998;4.466;2023-02-04T04:23:27;56686.66;;;-144.48;100.00
68758;BME280;55747;51.998;4.466;2023-02-04T04:26:04;56684.59;;;-144.48;100.00
68758;BME280;55747;51.998;4.466;2023-02-04T04:28:39;56694.94;;;-144.48;100.00
68758;BME280;55747;51.998;4.466;2023-02-04T04:31:04;56686.66;;;-144.48;100.00
68758;BME280;55747;51.998;4.466;2023-02-04T04:33:29;56742.50;;;-144.48;100.00
68758;BME280;55747;51.998;4.466;2023-02-04T04:35:55;56701.13;;;-144.48;100.00
68758;BME280;55747;51.998;4.466;2023-02-04T04:38:21;56699.06;;;-144.48;100.00
68758;BME280;55747;51.998;4.466;2023-02-04T04:40:46;56721.81;;;-144.48;100.00
68758;BME280;55747;51.998;4.466;2023-02-04T04:43:12;56694.94;;;-144.48;100.00
68758;BME280;55747;51.998;4.466;2023-02-04T04:45:37;56744.56;;;-144.48;100.00
68758;BME280;55747;51.998;4.466;2023-02-04T04:48:03;56699.06;;;-144.48;100.00
68758;BME280;55747;51.998;4.466;2023-02-04T04:50:31;56672.19;;;-144.48;100.00
68758;BME280;55747;51.998;4.466;2023-02-04T04:52:56;56736.28;;;-144.48;100.00
68758;BME280;55747;51.998;4.466;2023-02-04T04:55:24;56719.75;;;-144.48;100.00
68758;BME280;55747;51.998;4.466;2023-02-04T04:57:50;56703.19;;;-144.48;100.00
68758;BME280;55747;51.998;4.466;2023-02-04T05:00:19;56721.81;;;-144.48;100.00
68758;BME280;55747;51.998;4.466;2023-02-04T05:02:45;56740.41;;;-144.48;100.00
68758;BME280;55747;51.998;4.466;2023-02-04T05:05:11;56719.75;;;-144.48;100.00
68758;BME280;55747;51.998;4.466;2023-02-04T05:07:37;56738.34;;;-144.48;100.00
68758;BME280;55747;51.998;4.466;2023-02-04T05:10:04;56686.66;;;-144.48;100.00
68758;BME280;55747;51.998;4.466;2023-02-04T05:12:29;56707.34;;;-144.48;100.00
68758;BME280;55747;51.998;4.466;2023-02-04T05:14:55;56709.41;;;-144.48;100.00
68758;BME280;55747;51.998;4.466;2023-02-04T05:17:21;56713.53;;;-144.48;100.00
68758;BME280;55747;51.998;4.466;2023-02-04T05:19:46;56742.50;;;-144.48;100.00
68758;BME280;55747;51.998;4.466;2023-02-04T05:22:11;56728.00;;;-144.48;100.00
68758;BME280;55747;51.998;4.466;2023-02-04T05:24:37;56721.81;;;-144.48;100.00
68758;BME280;55747;51.998;4.466;2023-02-04T05:27:02;56713.53;;;-144.48;100.00
68758;BME280;55747;51.998;4.466;2023-02-04T05:29:28;56670.13;;;-144.48;100.00
68758;BME280;55747;51.998;4.466;2023-02-04T05:31:53;56707.34;;;-144.48;100.00
68758;BME280;55747;51.998;4.466;2023-02-04T05:34:18;56684.59;;;-144.48;100.00
68758;BME280;55747;51.998;4.466;2023-02-04T05:36:44;56713.53;;;-144.48;100.00
68758;BME280;55747;51.998;4.466;2023-02-04T05:39:09;56734.22;;;-144.48;100.00
68758;BME280;55747;51.998;4.466;2023-02-04T05:41:34;56715.59;;;-144.48;100.00
68758;BME280;55747;51.998;4.466;2023-02-04T05:44:00;56705.28;;;-144.48;100.00
68758;BME280;55747;51.998;4.466;2023-02-04T05:46:25;56676.31;;;-144.48;100.00
68758;BME280;55747;51.998;4.466;2023-02-04T05:48:50;56723.88;;;-144.48;100.00
68758;BME280;55747;51.998;4.466;2023-02-04T05:51:16;56715.59;;;-144.48;100.00
68758;BME280;55747;51.998;4.466;2023-02-04T05:53:41;56736.28;;;-144.48;100.00
68758;BME280;55747;51.998;4.466;2023-02-04T05:56:07;56734.22;;;-144.48;100.00
68758;BME280;55747;51.998;4.466;2023-02-04T05:58:32;56709.41;;;-144.48;100.00
68758;BME280;55747;51.998;4.466;2023-02-04T06:01:01;56699.06;;;-144.48;100.00
68758;BME280;55747;51.998;4.466;2023-02-04T06:03:28;56701.13;;;-144.48;100.00
68758;BME280;55747;51.998;4.466;2023-02-04T06:05:53;56684.59;;;-144.48;100.00
68758;BME280;55747;51.998;4.466;2023-02-04T06:08:19;56752.81;;;-144.48;100.00
68758;BME280;55747;51.998;4.466;2023-02-04T06:10:45;56705.28;;;-144.48;100.00
68758;BME280;55747;51.998;4.466;2023-02-04T06:13:10;56688.72;;;-144.48;100.00
68758;BME280;55747;51.998;4.466;2023-02-04T06:15:36;56730.09;;;-144.48;100.00
68758;BME280;55747;51.998;4.466;2023-02-04T06:18:03;56734.22;;;-144.48;100.00
68758;BME280;55747;51.998;4.466;2023-02-04T06:20:29;56697.00;;;-144.48;100.00
68758;BME280;55747;51.998;4.466;2023-02-04T06:22:54;56692.88;;;-144.48;100.00
68758;BME280;55747;51.998;4.466;2023-02-04T06:25:20;56709.41;;;-144.48;100.00
68758;BME280;55747;51.998;4.466;2023-02-04T06:27:46;56725.94;;;-144.48;100.00
68758;BME280;55747;51.998;4.466;2023-02-04T06:30:12;56717.69;;;-144.48;100.00
68758;BME280;55747;51.998;4.466;2023-02-04T06:32:37;56742.50;;;-144.48;100.00
68758;BME280;55747;51.998;4.466;2023-02-04T06:35:03;56715.59;;;-144.48;100.00
68758;BME280;55747;51.998;4.466;2023-02-04T06:37:29;56721.81;;;-144.48;100.00
68758;BME280;55747;51.998;4.466;2023-02-04T06:39:54;56725.94;;;-144.48;100.00
68758;BME280;55747;51.998;4.466;2023-02-04T06:42:21;56719.75;;;-144.48;100.00
68758;BME280;55747;51.998;4.466;2023-02-04T06:44:47;56713.53;;;-144.48;100.00
68758;BME280;55747;51.998;4.466;2023-02-04T06:47:12;56682.53;;;-144.48;100.00
68758;BME280;55747;51.998;4.466;2023-02-04T06:49:38;56725.94;;;-144.48;100.00
68758;BME280;55747;51.998;4.466;2023-02-04T06:52:03;56713.53;;;-144.48;100.00
68758;BME280;55747;51.998;4.466;2023-02-04T06:54:29;56721.81;;;-144.48;100.00
68758;BME280;55747;51.998;4.466;2023-02-04T06:56:55;56777.63;;;-144.48;100.00
68758;BME280;55747;51.998;4.466;2023-02-04T06:59:21;56684.59;;;-144.48;100.00
68758;BME280;55747;51.998;4.466;2023-02-04T07:01:48;56680.47;;;-144.48;100.00
68758;BME280;55747;51.998;4.466;2023-02-04T07:04:13;56715.59;;;-144.48;100.00
68758;BME280;55747;51.998;4.466;2023-02-04T07:06:39;56744.56;;;-144.48;100.00
68758;BME280;55747;51.998;4.466;2023-02-04T07:09:05;56730.09;;;-144.48;100.00
68758;BME280;55747;51.998;4.466;2023-02-04T07:11:30;56703.19;;;-144.48;100.00
68758;BME280;55747;51.998;4.466;2023-02-04T07:13:55;56750.75;;;-144.48;100.00
68758;BME280;55747;51.998;4.466;2023-02-04T07:16:21;56703.19;;;-144.48;100.00
68758;BME280;55747;51.998;4.466;2023-02-04T07:18:46;56676.31;;;-144.48;100.00
68758;BME280;55747;51.998;4.466;2023-02-04T07:21:11;56657.72;;;-144.48;100.00
68758;BME280;55747;51.998;4.466;2023-02-04T07:23:40;56715.59;;;-144.48;100.00
68758;BME280;55747;51.998;4.466;2023-02-04T07:26:11;56703.19;;;-144.48;100.00
68758;BME280;55747;51.998;4.466;2023-02-04T07:28:36;56713.53;;;-144.48;100.00
68758;BME280;55747;51.998;4.466;2023-02-04T07:31:10;56717.69;;;-144.48;100.00
68758;BME280;55747;51.998;4.466;2023-02-04T07:33:42;56728.00;;;-144.48;100.00
68758;BME280;55747;51.998;4.466;2023-02-04T07:36:10;56748.69;;;-144.48;100.00
68758;BME280;55747;51.998;4.466;2023-02-04T07:38:52;56699.06;;;-144.48;100.00
68758;BME280;55747;51.998;4.466;2023-02-04T07:41:17;56701.13;;;-144.48;100.00
68758;BME280;55747;51.998;4.466;2023-02-04T07:46:57;56732.16;;;-144.48;100.00
68758;BME280;55747;51.998;4.466;2023-02-04T07:49:39;56732.16;;;-144.48;100.00
68758;BME280;55747;51.998;4.466;2023-02-04T07:52:44;56701.13;;;-144.48;100.00
68758;BME280;55747;51.998;4.466;2023-02-04T13:14:10;56686.66;;;-144.48;95.99
68758;BME280;55747;51.998;4.466;2023-02-04T14:03:45;56725.94;;;-144.48;96.42
68758;BME280;55747;51.998;4.466;2023-02-04T14:14:02;56754.91;;;-144.48;95.20
68758;BME280;55747;51.998;4.466;2023-02-04T14:28:14;56682.53;;;-144.48;93.69
68758;BME280;55747;51.998;4.466;2023-02-04T14:38:07;56723.88;;;-144.48;92.79
68758;BME280;55747;51.998;4.466;2023-02-04T14:40:49;56707.34;;;-144.48;93.14
68758;BME280;55747;51.998;4.466;2023-02-04T14:47:35;56719.75;;;-144.48;93.37
68758;BME280;55747;51.998;4.466;2023-02-04T14:54:08;56684.59;;;-144.48;93.69
68758;BME280;55747;51.998;4.466;2023-02-04T14:56:59;56692.88;;;-144.48;93.94
68758;BME280;55747;51.998;4.466;2023-02-04T15:03:32;56730.09;;;-144.48;94.81
68758;BME280;55747;51.998;4.466;2023-02-04T15:06:59;56721.81;;;-144.48;95.24
68758;BME280;55747;51.998;4.466;2023-02-04T15:09:47;56711.47;;;-144.48;95.20
68758;BME280;55747;51.998;4.466;2023-02-04T15:31:02;56752.81;;;-144.48;96.71
68758;BME280;55747;51.998;4.466;2023-02-04T15:34:14;56742.50;;;-144.48;96.81
68758;BME280;55747;51.998;4.466;2023-02-04T15:55:45;56715.59;;;-144.48;97.53
68758;BME280;55747;51.998;4.466;2023-02-04T16:01:48;56736.28;;;-144.48;97.57
68758;BME280;55747;51.998;4.466;2023-02-04T17:12:21;56756.97;;;-144.48;99.98
68758;BME280;55747;51.998;4.466;2023-02-04T17:22:00;56771.44;;;-144.48;100.00
68758;BME280;55747;51.998;4.466;2023-02-04T17:28:10;56730.09;;;-144.48;100.00
68758;BME280;55747;51.998;4.466;2023-02-04T17:39:32;56715.59;;;-144.48;100.00
68758;BME280;55747;51.998;4.466;2023-02-04T17:56:26;56719.75;;;-144.48;100.00
68758;BME280;55747;51.998;4.466;2023-02-04T17:59:24;56765.22;;;-144.48;100.00
68758;BME280;55747;51.998;4.466;2023-02-04T18:28:20;56734.22;;;-144.48;100.00
68758;BME280;55747;51.998;4.466;2023-02-04T18:44:37;56717.69;;;-144.48;100.00
68758;BME280;55747;51.998;4.466;2023-02-04T18:50:47;56730.09;;;-144.48;100.00
68758;BME280;55747;51.998;4.466;2023-02-04T18:53:49;56721.81;;;-144.48;100.00
68758;BME280;55747;51.998;4.466;2023-02-04T19:25:56;56744.56;;;-144.48;100.00
68758;BME280;55747;51.998;4.466;2023-02-04T20:31:23;56752.81;;;-144.48;100.00
68758;BME280;55747;51.998;4.466;2023-02-04T20:51:23;56728.00;;;-144.48;100.00
68758;BME280;55747;51.998;4.466;2023-02-04T20:54:38;56752.81;;;-144.48;100.00
68758;BME280;55747;51.998;4.466;2023-02-04T21:38:21;56738.34;;;-144.48;100.00
68758;BME280;55747;51.998;4.466;2023-02-04T21:41:31;56738.34;;;-144.48;100.00
68758;BME280;55747;51.998;4.466;2023-02-04T21:52:11;56736.28;;;-144.48;100.00
68758;BME280;55747;51.998;4.466;2023-02-04T22:39:38;56748.69;;;-144.48;100.00
68758;BME280;55747;51.998;4.466;2023-02-04T22:42:38;56713.53;;;-144.48;100.00
68758;BME280;55747;51.998;4.466;2023-02-04T22:45:51;56744.56;;;-144.48;100.00
68758;BME280;55747;51.998;4.466;2023-02-04T22:49:22;56730.09;;;-144.48;100.00
68758;BME280;55747;51.998;4.466;2023-02-04T22:59:27;56725.94;;;-144.48;100.00
68758;BME280;55747;51.998;4.466;2023-02-04T23:09:34;56732.16;;;-144.48;100.00
68758;BME280;55747;51.998;4.466;2023-02-04T23:19:20;56769.38;;;-144.48;100.00
68758;BME280;55747;51.998;4.466;2023-02-04T23:25:52;56719.75;;;-144.48;100.00
68758;BME280;55747;51.998;4.466;2023-02-04T23:32:32;56750.75;;;-144.48;100.00
68758;BME280;55747;51.998;4.466;2023-02-04T23:41:48;56717.69;;;-144.48;100.00
68758;BME280;55747;51.998;4.466;2023-02-04T23:48:04;56752.81;;;-144.48;100.00
68758;BME280;55747;51.998;4.466;2023-02-04T23:51:17;56761.09;;;-144.48;100.00
68758;BME280;55747;51.998;4.466;2023-02-04T23:57:22;56732.16;;;-144.48;100.00
